首页
METAR-TAF:

METAR-TAF

机场 :

香港國際機場

香港, 中华人民共和国

纬度: 22-19N, 经度: 113-55E, 海拔: 9米

当前天气观测

该预报发布于14分钟前的12:00 UTC
风速12节,风向
温度 30°C
湿度 79%
气压 1004 hPa
能见度10公里或以上
少量云层高于1300英尺
散云层高于3500英尺

METAR: VHHH 091200Z 19012KT 9999 FEW013 SCT035 30/26 Q1004 NOSIG

时间: 20:14 (12:14 UTC)

预报

该预报发布于1小时和14分钟前的11:00 UTC
预报有效从09日的 12点(UTC)到 10日的 18点(UTC)
风速15节,风向南转西南
能见度10公里或以上
少量云层高于2000英尺

TAF: VHHH 091100Z 0912/1018 20015KT 9999 FEW020 TX33/1006Z TN29/0922Z

超过4000个机场的气象观测和天气预报(METAR&TAF报告)。

可查询的气象台以黄色和红色小点在地图上表示。

将鼠标移到小点上方,可查看气象台名称。

然后点击查看天气观测和预报。

如需切换地图:点击带黑十字的绿色按钮放大地图;点击带横线的绿色按钮缩小地图;或者点击绿色箭头查看邻近地区的地图。


METAR-TAF: